Grayling, MI

4:44 AM EST on February 21, 2017 (GMT -0500)
Grayling | | Change Station
Active Advisory: Small Craft Advisory

Elev 1158 ft 44.68 °N, 84.73 °W | Updated 29 minutes ago

Overcast
Overcast
42 °F
Feels Like 40 °F
N
4
Wind Variable Wind from SSE

Today
High -- | Low -- °F
--% Chance of Precip.
Yesterday
High -- | Low -- °F
Precip. -- in
Pressure 29.89 in
Visibility 10.0 miles
Clouds Overcast 3900 ft
Windchill 40 °F
Dew Point 32 °F
Humidity 69%
Rainfall 0.00 in
Snow Depth Not available.
7:29 AM 6:16 PM
Waning Crescent, 26% visible
METAR KGOV 210915Z AUTO 16003KT 10SM OVC039 05/00 A2989 RMK AO2 T00540002
Pressure 29.89 in
Visibility 10.0 miles
Clouds Overcast 3900 ft
Windchill 40 °F
Dew Point 32 °F
Humidity 69%
Rainfall 0.00 in
Snow Depth Not available.
7:29 AM 6:16 PM
Waning Crescent, 26% visible
METAR KGOV 210915Z AUTO 16003KT 10SM OVC039 05/00 A2989 RMK AO2 T00540002

Get Your Daily Forecast Email!

Thanks for signing up!

Be on the lookout for a verification email in your inbox.

You'll start receiving the daily forecast at 8 AM.

×

10-Day Weather Forecast

Almanac

Astronomy

Feb. 21, 2017 Rise Set
Actual Time
Civil Twilight
Nautical Twilight
Astronomical Twilight
Moon
Length of Visible Light
Length of Day
Tomorrow will be .
, % of the Moon is Illuminated

Today's Extremes

State Highs State Lows

Community

WunderPhotos

Upload Photos

1,962,540 photos uploaded!

WunderBlog® & News

Nearby

Air Quality

  Air Quality AQ Index Pollutant
Not available.

Snow Depth

Station Depth Elevation

Earthquake Activity

City Distance Mag. Time & Date
Minimum magnitude displayed is 2.5.

Coastal Water Temperatures

Place Temperature

Stations

Nearby Weather Stations

Station Location Temp. Windchill Dew Point Humidity Wind Precip. Elev Updated Type
                   

Watches & Warnings

Small Craft Advisory
Issued: 3:57 AM EST Feb. 21, 2017 – National Weather Service

... Small Craft Advisory remains in effect until 7 am EST this
morning...

A Small Craft Advisory remains in effect until 7 am EST this
morning.

* Please see the latest marine forecasts for more detailed
information.

Precautionary/preparedness actions

Inexperienced mariners... especially those operating smaller
vessels should avoid navigating in these conditions.